PN30 weather

Schrenkel Airport
Cassville, Pennsylvania, United States

Public forecast

Using degrees Fahrenheit for public forecast. Weather courtesy of forecast.io.

Closest aviation weather report (METAR) to Schrenkel Airport

Closest report is Altoona Blair County Airport, 10.2 nm (18.8 km) WNW. Retrieved 2020/06/02 09:53 UTC (23 minutes ago):

KAOO 020953Z AUTO 27004KT 10SM -RA FEW055 OVC095 12/07 A3014 RMK AO2 RAB0859 SLP204 P0000 T01170067

Closest aviation forecast (TAF) to Schrenkel Airport

Closest forecast is Altoona Blair County Airport, 10.2 nm (18.8 km) WNW. Retrieved 2020/06/02 06:51 UTC (3 hours ago):

TAF KAOO 020547Z 0206/0306 VRB03KT P6SM OVC100 FM021100 20004KT P6SM -SHRA OVC050 FM021500 21008KT P6SM VCSH OVC050 FM021800 24010KT P6SM BKN050 FM030300 25010KT P6SM BKN050 WS020/28040KT